Portada
METAR-TAF:

METAR-TAF

Aeroports :

Phuket, Tailàndia

latitud: 08-07N, longitud: 098-19E, altitud: 6 m

Observació

L'informe es va fer fa 36 minuts, a les 07:30 UTC
Vent 10 kt del Nord-Oest, variant entre Oest/Nord-Oest i Nord
Temperatura 28°C
Humitat 79%
Pressió 1009 hPa
Visibilitat 10 km o més
Escasses núvols a una alçada de 2000 ft
Núvols disperses a una alçada de 10000 ft

METAR: VTSP 310730Z 31010KT 290V360 9999 FEW020 SCT100 28/24 Q1009 NOSIG

Hora: 15:06 (08:06 UTC)

Pronòstic

L'informe es va fer fa 3 hores i 6 minuts, a les 05:00 UTC
Pronòstic vàlid del 31 a les 06 UTC al 01 a les 12 UTC
Vent 8 kt del Oest
Visibilitat 10 km o més
Escasses núvols a una alçada de 2000 ft
Evolucionant progressivament
l' 31 a les 12 UTC al 31 a les 14 UTC
Vent kt del Nord
Evolucionant progressivament
l' 01 a les 02 UTC al 01 a les 04 UTC
Vent 8 kt del Oest

TAF: VTSP 310500Z 3106/0112 28008KT 9999 FEW020 BECMG 3112/3114 00000KT BECMG 0102/0104 28008KT

Observacions i pronòstics meteorològics de més de 4000 aeroports (METAR i TAF).

Les estacions disponibles són els punts grocs i vermells al mapa.

Posi el ratolí al punt desitjat per veure el nom de l'estació.

Feu clic per veure les observacions i els pronòstics meteorològics.

Per canviar el mapa: feu clic els botons verds amb una creu de color negre per apropar; al botó verd amb un guió per allunyar la imatge; o en les fletxes verdes per a mapes adjacents.


METAR-TAF: